This is the latest recevied weather packets stored in our database for station/object N2PPN. If no packets are shown the sender has not sent any weather packets the latest 10 day(s).
| Time | Temp. | Humidity | Pressure | Rain* | Wind** | Luminosity | Snow |
|---|---|---|---|---|---|---|---|
| 1777823000 | 10.56° C | 48% | 1014.3 hPa | 0 mm | - | 173 W/m² | - |
| 1777822698 | 10.56° C | 47% | 1014.3 hPa | 0 mm | - | 136 W/m² | - |
| 1777822395 | 10.56° C | 46% | 1014.2 hPa | 0 mm | - | 91 W/m² | - |
| 1777822093 | 11.11° C | 44% | 1014.2 hPa | 0 mm | - | 166 W/m² | - |
| 1777821790 | 11.11° C | 42% | 1014.3 hPa | 0 mm | - | 402 W/m² | - |
| 1777821487 | 11.67° C | 42% | 1014.2 hPa | 0 mm | - | 328 W/m² | - |
| 1777821185 | 11.67° C | 44% | 1014.3 hPa | 0 mm | - | 507 W/m² | - |
| 1777820881 | 12.22° C | 45% | 1014.4 hPa | 0 mm | - | 767 W/m² | - |
| 1777820577 | 11.67° C | 47% | 1014.3 hPa | 0 mm | - | 175 W/m² | - |
| 1777820275 | 11.67° C | 45% | 1014.3 hPa | 0 mm | - | 736 W/m² | - |
| 1777819972 | 11.11° C | 48% | 1014.3 hPa | 0 mm | - | 737 W/m² | - |
| 1777819669 | 11.67° C | 48% | 1014.4 hPa | 0 mm | - | 652 W/m² | - |
| 1777819367 | 10.56° C | 49% | 1014.6 hPa | 0 mm | - | 654 W/m² | - |
| 1777819064 | 10.56° C | 49% | 1014.3 hPa | 0 mm | - | 651 W/m² | - |
| 1777818761 | 10.56° C | 49% | 1014.5 hPa | 0 mm | - | 614 W/m² | - |
| 1777818457 | 10.56° C | 49% | 1014.3 hPa | 0 mm | - | 595 W/m² | - |
| 1777818154 | 10.56° C | 50% | 1014.4 hPa | 0 mm | - | 582 W/m² | - |
| 1777817851 | 10.56° C | 50% | 1014.3 hPa | 0 mm | - | 572 W/m² | - |
| 1777817548 | 10.56° C | 51% | 1014.3 hPa | 0 mm | - | 566 W/m² | - |
| 1777817245 | 10.56° C | 51% | 1014.2 hPa | 0 mm | - | 551 W/m² | - |
| 1777816942 | 10° C | 52% | 1014.3 hPa | 0 mm | - | 536 W/m² | - |
| 1777816638 | 10° C | 52% | 1014.3 hPa | 0 mm | - | 523 W/m² | - |
| 1777816335 | 10° C | 53% | 1014.5 hPa | 0 mm | - | 517 W/m² | - |
| 1777816033 | 10.56° C | 50% | 1014.5 hPa | 0 mm | - | 506 W/m² | - |
| 1777815730 | 10° C | 52% | 1014.3 hPa | 0 mm | - | 486 W/m² | - |
* Rain latest hour (hover to see other rain measurements)
** Current wind speed in m/s (hover to see current wind gust speed)